sensor_id;sensor_type;location;lat;lon;timestamp;P1;durP1;ratioP1;P2;durP2;ratioP2
1685;SDS011;840;47.980;7.830;2023-04-03T00:01:46;5.53;;;4.70;;
1685;SDS011;840;47.980;7.830;2023-04-03T00:04:13;4.47;;;4.17;;
1685;SDS011;840;47.980;7.830;2023-04-03T00:06:40;6.17;;;5.13;;
1685;SDS011;840;47.980;7.830;2023-04-03T00:09:07;4.93;;;3.80;;
1685;SDS011;840;47.980;7.830;2023-04-03T00:11:33;4.50;;;4.10;;
1685;SDS011;840;47.980;7.830;2023-04-03T00:14:00;4.93;;;4.60;;
1685;SDS011;840;47.980;7.830;2023-04-03T00:16:27;4.97;;;4.57;;
1685;SDS011;840;47.980;7.830;2023-04-03T00:18:56;5.23;;;4.73;;
1685;SDS011;840;47.980;7.830;2023-04-03T00:21:23;5.33;;;4.30;;
1685;SDS011;840;47.980;7.830;2023-04-03T00:23:51;6.83;;;4.50;;
1685;SDS011;840;47.980;7.830;2023-04-03T00:26:17;5.20;;;4.80;;
1685;SDS011;840;47.980;7.830;2023-04-03T00:28:45;4.17;;;3.77;;
1685;SDS011;840;47.980;7.830;2023-04-03T00:31:13;4.97;;;4.50;;
1685;SDS011;840;47.980;7.830;2023-04-03T00:33:41;4.73;;;4.33;;
1685;SDS011;840;47.980;7.830;2023-04-03T00:36:09;6.40;;;4.53;;
1685;SDS011;840;47.980;7.830;2023-04-03T00:38:38;4.70;;;4.30;;
1685;SDS011;840;47.980;7.830;2023-04-03T00:41:05;5.00;;;4.57;;
1685;SDS011;840;47.980;7.830;2023-04-03T00:43:32;5.67;;;5.20;;
1685;SDS011;840;47.980;7.830;2023-04-03T00:45:59;6.27;;;4.77;;
1685;SDS011;840;47.980;7.830;2023-04-03T00:48:28;5.77;;;5.20;;
1685;SDS011;840;47.980;7.830;2023-04-03T00:50:58;4.60;;;4.20;;
1685;SDS011;840;47.980;7.830;2023-04-03T00:53:29;5.13;;;4.63;;
1685;SDS011;840;47.980;7.830;2023-04-03T00:55:58;4.47;;;4.10;;
1685;SDS011;840;47.980;7.830;2023-04-03T00:58:28;4.10;;;3.80;;
1685;SDS011;840;47.980;7.830;2023-04-03T01:01:00;4.83;;;4.43;;
1685;SDS011;840;47.980;7.830;2023-04-03T01:03:31;3.93;;;3.63;;
1685;SDS011;840;47.980;7.830;2023-04-03T01:05:58;3.70;;;3.43;;
1685;SDS011;840;47.980;7.830;2023-04-03T01:08:25;3.93;;;3.63;;
1685;SDS011;840;47.980;7.830;2023-04-03T01:10:53;3.80;;;3.50;;
1685;SDS011;840;47.980;7.830;2023-04-03T01:13:23;4.27;;;3.93;;
1685;SDS011;840;47.980;7.830;2023-04-03T01:15:52;3.50;;;3.30;;
1685;SDS011;840;47.980;7.830;2023-04-03T01:18:20;4.53;;;4.13;;
1685;SDS011;840;47.980;7.830;2023-04-03T01:21:02;4.13;;;3.83;;
1685;SDS011;840;47.980;7.830;2023-04-03T01:23:55;5.13;;;4.83;;
1685;SDS011;840;47.980;7.830;2023-04-03T01:26:32;4.13;;;3.83;;
1685;SDS011;840;47.980;7.830;2023-04-03T01:29:00;4.33;;;3.93;;
1685;SDS011;840;47.980;7.830;2023-04-03T01:31:28;4.57;;;4.17;;
1685;SDS011;840;47.980;7.830;2023-04-03T01:34:01;4.00;;;3.70;;
1685;SDS011;840;47.980;7.830;2023-04-03T01:36:30;5.90;;;3.83;;
1685;SDS011;840;47.980;7.830;2023-04-03T01:38:58;3.93;;;3.63;;
1685;SDS011;840;47.980;7.830;2023-04-03T01:41:26;4.00;;;3.60;;
1685;SDS011;840;47.980;7.830;2023-04-03T01:43:53;4.00;;;3.67;;
1685;SDS011;840;47.980;7.830;2023-04-03T01:46:21;4.40;;;4.00;;
1685;SDS011;840;47.980;7.830;2023-04-03T01:48:48;5.30;;;3.57;;
1685;SDS011;840;47.980;7.830;2023-04-03T01:51:16;3.97;;;3.67;;
1685;SDS011;840;47.980;7.830;2023-04-03T01:53:44;3.70;;;3.50;;
1685;SDS011;840;47.980;7.830;2023-04-03T01:56:11;11.33;;;3.37;;
1685;SDS011;840;47.980;7.830;2023-04-03T01:58:41;3.53;;;3.23;;
1685;SDS011;840;47.980;7.830;2023-04-03T02:01:07;2.53;;;2.30;;
1685;SDS011;840;47.980;7.830;2023-04-03T02:03:34;3.60;;;3.30;;
1685;SDS011;840;47.980;7.830;2023-04-03T02:06:01;3.80;;;3.50;;
1685;SDS011;840;47.980;7.830;2023-04-03T02:08:29;3.00;;;2.73;;
1685;SDS011;840;47.980;7.830;2023-04-03T02:10:56;3.63;;;3.33;;
1685;SDS011;840;47.980;7.830;2023-04-03T02:13:23;3.50;;;3.20;;
1685;SDS011;840;47.980;7.830;2023-04-03T02:15:50;3.90;;;3.60;;
1685;SDS011;840;47.980;7.830;2023-04-03T02:18:17;4.00;;;3.70;;
1685;SDS011;840;47.980;7.830;2023-04-03T02:20:46;3.77;;;3.53;;
1685;SDS011;840;47.980;7.830;2023-04-03T02:23:13;4.30;;;3.90;;
1685;SDS011;840;47.980;7.830;2023-04-03T02:25:41;3.60;;;3.30;;
1685;SDS011;840;47.980;7.830;2023-04-03T02:28:08;4.00;;;3.13;;
1685;SDS011;840;47.980;7.830;2023-04-03T02:30:35;3.83;;;3.53;;
1685;SDS011;840;47.980;7.830;2023-04-03T02:33:02;3.73;;;3.40;;
1685;SDS011;840;47.980;7.830;2023-04-03T02:35:29;4.50;;;4.20;;
1685;SDS011;840;47.980;7.830;2023-04-03T02:37:56;3.63;;;3.07;;
1685;SDS011;840;47.980;7.830;2023-04-03T02:40:22;3.80;;;3.50;;
1685;SDS011;840;47.980;7.830;2023-04-03T02:42:51;4.43;;;3.57;;
1685;SDS011;840;47.980;7.830;2023-04-03T02:45:18;3.87;;;3.57;;
1685;SDS011;840;47.980;7.830;2023-04-03T02:47:45;4.67;;;4.27;;
1685;SDS011;840;47.980;7.830;2023-04-03T02:50:12;3.60;;;3.30;;
1685;SDS011;840;47.980;7.830;2023-04-03T02:52:39;3.63;;;3.33;;
1685;SDS011;840;47.980;7.830;2023-04-03T02:55:06;3.47;;;3.10;;
1685;SDS011;840;47.980;7.830;2023-04-03T02:57:33;4.17;;;3.87;;
1685;SDS011;840;47.980;7.830;2023-04-03T03:00:01;3.87;;;3.53;;
1685;SDS011;840;47.980;7.830;2023-04-03T03:02:28;5.00;;;4.00;;
1685;SDS011;840;47.980;7.830;2023-04-03T03:04:55;4.50;;;4.10;;
1685;SDS011;840;47.980;7.830;2023-04-03T03:07:22;4.93;;;4.20;;
1685;SDS011;840;47.980;7.830;2023-04-03T03:09:49;4.87;;;4.47;;
1685;SDS011;840;47.980;7.830;2023-04-03T03:12:16;5.63;;;4.87;;
1685;SDS011;840;47.980;7.830;2023-04-03T03:14:46;4.50;;;3.60;;
1685;SDS011;840;47.980;7.830;2023-04-03T03:17:15;4.70;;;3.73;;
1685;SDS011;840;47.980;7.830;2023-04-03T03:19:42;4.00;;;3.70;;
1685;SDS011;840;47.980;7.830;2023-04-03T03:22:10;3.53;;;3.33;;
1685;SDS011;840;47.980;7.830;2023-04-03T03:24:37;3.80;;;3.60;;
1685;SDS011;840;47.980;7.830;2023-04-03T03:27:04;3.73;;;3.43;;
1685;SDS011;840;47.980;7.830;2023-04-03T03:29:31;3.73;;;3.43;;
1685;SDS011;840;47.980;7.830;2023-04-03T03:31:58;3.77;;;3.47;;
1685;SDS011;840;47.980;7.830;2023-04-03T03:34:26;3.83;;;3.53;;
1685;SDS011;840;47.980;7.830;2023-04-03T03:36:53;4.00;;;3.63;;
1685;SDS011;840;47.980;7.830;2023-04-03T03:39:20;3.90;;;2.73;;
1685;SDS011;840;47.980;7.830;2023-04-03T03:41:47;3.80;;;3.10;;
1685;SDS011;840;47.980;7.830;2023-04-03T03:44:14;4.50;;;4.20;;
1685;SDS011;840;47.980;7.830;2023-04-03T03:46:41;3.80;;;3.50;;
1685;SDS011;840;47.980;7.830;2023-04-03T03:49:10;3.03;;;2.80;;
1685;SDS011;840;47.980;7.830;2023-04-03T03:51:39;3.17;;;2.97;;
1685;SDS011;840;47.980;7.830;2023-04-03T03:54:06;4.27;;;3.20;;
1685;SDS011;840;47.980;7.830;2023-04-03T03:56:34;2.80;;;2.60;;
1685;SDS011;840;47.980;7.830;2023-04-03T03:59:01;4.23;;;3.83;;
1685;SDS011;840;47.980;7.830;2023-04-03T04:01:28;3.93;;;3.63;;
1685;SDS011;840;47.980;7.830;2023-04-03T04:03:55;3.43;;;3.13;;
1685;SDS011;840;47.980;7.830;2023-04-03T04:06:22;3.60;;;3.30;;
1685;SDS011;840;47.980;7.830;2023-04-03T04:08:51;3.77;;;3.47;;
1685;SDS011;840;47.980;7.830;2023-04-03T04:11:18;5.93;;;3.27;;
1685;SDS011;840;47.980;7.830;2023-04-03T04:13:46;3.83;;;3.53;;
1685;SDS011;840;47.980;7.830;2023-04-03T04:16:14;4.53;;;2.97;;
1685;SDS011;840;47.980;7.830;2023-04-03T04:18:40;3.67;;;3.37;;
1685;SDS011;840;47.980;7.830;2023-04-03T04:21:07;2.93;;;2.73;;
1685;SDS011;840;47.980;7.830;2023-04-03T04:23:34;7.20;;;2.73;;
1685;SDS011;840;47.980;7.830;2023-04-03T04:26:02;2.60;;;2.40;;
1685;SDS011;840;47.980;7.830;2023-04-03T04:28:29;3.93;;;3.63;;
1685;SDS011;840;47.980;7.830;2023-04-03T04:30:56;3.50;;;3.30;;
1685;SDS011;840;47.980;7.830;2023-04-03T04:33:23;2.83;;;2.63;;
1685;SDS011;840;47.980;7.830;2023-04-03T04:35:50;3.70;;;3.47;;
1685;SDS011;840;47.980;7.830;2023-04-03T04:38:17;3.20;;;3.00;;
1685;SDS011;840;47.980;7.830;2023-04-03T04:40:44;3.20;;;3.00;;
1685;SDS011;840;47.980;7.830;2023-04-03T04:43:12;2.90;;;2.70;;
1685;SDS011;840;47.980;7.830;2023-04-03T04:45:40;3.70;;;3.50;;
1685;SDS011;840;47.980;7.830;2023-04-03T04:48:08;2.57;;;2.47;;
1685;SDS011;840;47.980;7.830;2023-04-03T04:50:35;3.07;;;2.87;;
1685;SDS011;840;47.980;7.830;2023-04-03T04:53:02;3.23;;;3.03;;
1685;SDS011;840;47.980;7.830;2023-04-03T04:55:29;3.13;;;2.63;;
1685;SDS011;840;47.980;7.830;2023-04-03T04:57:56;2.77;;;2.67;;
1685;SDS011;840;47.980;7.830;2023-04-03T05:00:25;2.80;;;2.60;;
1685;SDS011;840;47.980;7.830;2023-04-03T05:02:52;3.27;;;2.50;;
1685;SDS011;840;47.980;7.830;2023-04-03T05:05:19;3.73;;;3.43;;
1685;SDS011;840;47.980;7.830;2023-04-03T05:07:45;3.85;;;3.55;;
1685;SDS011;840;47.980;7.830;2023-04-03T05:10:12;3.10;;;2.90;;
1685;SDS011;840;47.980;7.830;2023-04-03T05:12:39;3.03;;;2.83;;
1685;SDS011;840;47.980;7.830;2023-04-03T05:15:07;3.13;;;2.93;;
1685;SDS011;840;47.980;7.830;2023-04-03T05:17:36;3.83;;;3.53;;
1685;SDS011;840;47.980;7.830;2023-04-03T05:20:03;5.30;;;4.00;;
1685;SDS011;840;47.980;7.830;2023-04-03T05:22:30;4.77;;;3.37;;
1685;SDS011;840;47.980;7.830;2023-04-03T05:24:58;3.27;;;3.07;;
1685;SDS011;840;47.980;7.830;2023-04-03T05:27:25;4.13;;;3.70;;
1685;SDS011;840;47.980;7.830;2023-04-03T05:29:53;3.73;;;3.43;;
1685;SDS011;840;47.980;7.830;2023-04-03T05:32:20;3.53;;;3.30;;
1685;SDS011;840;47.980;7.830;2023-04-03T05:34:48;3.10;;;2.90;;
1685;SDS011;840;47.980;7.830;2023-04-03T05:37:16;4.67;;;4.20;;
1685;SDS011;840;47.980;7.830;2023-04-03T05:39:43;3.67;;;3.00;;
1685;SDS011;840;47.980;7.830;2023-04-03T05:42:10;3.60;;;2.63;;
1685;SDS011;840;47.980;7.830;2023-04-03T05:44:38;4.10;;;3.37;;
1685;SDS011;840;47.980;7.830;2023-04-03T05:47:05;3.30;;;3.10;;
1685;SDS011;840;47.980;7.830;2023-04-03T05:49:33;3.60;;;3.30;;
1685;SDS011;840;47.980;7.830;2023-04-03T05:52:01;3.83;;;3.53;;
1685;SDS011;840;47.980;7.830;2023-04-03T05:54:29;3.47;;;3.27;;
1685;SDS011;840;47.980;7.830;2023-04-03T05:56:57;5.20;;;3.20;;
1685;SDS011;840;47.980;7.830;2023-04-03T05:59:23;4.40;;;3.90;;
1685;SDS011;840;47.980;7.830;2023-04-03T06:01:50;3.90;;;3.67;;
1685;SDS011;840;47.980;7.830;2023-04-03T06:04:17;6.10;;;3.53;;
1685;SDS011;840;47.980;7.830;2023-04-03T06:06:46;3.77;;;3.47;;
1685;SDS011;840;47.980;7.830;2023-04-03T06:09:18;4.10;;;3.17;;
1685;SDS011;840;47.980;7.830;2023-04-03T06:11:46;6.23;;;3.47;;
1685;SDS011;840;47.980;7.830;2023-04-03T06:14:13;3.57;;;3.33;;
1685;SDS011;840;47.980;7.830;2023-04-03T06:16:40;3.83;;;3.37;;
1685;SDS011;840;47.980;7.830;2023-04-03T06:19:08;4.20;;;3.80;;
1685;SDS011;840;47.980;7.830;2023-04-03T06:21:36;4.00;;;3.70;;
1685;SDS011;840;47.980;7.830;2023-04-03T06:24:04;2.90;;;2.70;;
1685;SDS011;840;47.980;7.830;2023-04-03T06:26:33;4.07;;;3.60;;
1685;SDS011;840;47.980;7.830;2023-04-03T06:29:01;4.90;;;3.97;;
1685;SDS011;840;47.980;7.830;2023-04-03T06:31:28;4.20;;;3.80;;
1685;SDS011;840;47.980;7.830;2023-04-03T06:33:55;4.10;;;3.77;;
1685;SDS011;840;47.980;7.830;2023-04-03T06:36:23;4.57;;;4.10;;
1685;SDS011;840;47.980;7.830;2023-04-03T06:38:49;3.43;;;3.23;;
1685;SDS011;840;47.980;7.830;2023-04-03T06:41:16;4.57;;;4.00;;
1685;SDS011;840;47.980;7.830;2023-04-03T06:43:45;16.93;;;3.80;;
1685;SDS011;840;47.980;7.830;2023-04-03T06:46:15;3.47;;;3.00;;
1685;SDS011;840;47.980;7.830;2023-04-03T06:48:42;4.77;;;2.77;;
1685;SDS011;840;47.980;7.830;2023-04-03T06:51:14;3.70;;;3.40;;
1685;SDS011;840;47.980;7.830;2023-04-03T06:53:44;5.00;;;3.60;;
1685;SDS011;840;47.980;7.830;2023-04-03T06:56:12;3.97;;;3.67;;
1685;SDS011;840;47.980;7.830;2023-04-03T06:58:38;3.13;;;2.93;;
1685;SDS011;840;47.980;7.830;2023-04-03T07:01:07;3.00;;;2.60;;
1685;SDS011;840;47.980;7.830;2023-04-03T07:03:34;2.50;;;2.30;;
1685;SDS011;840;47.980;7.830;2023-04-03T07:06:01;2.07;;;1.97;;
1685;SDS011;840;47.980;7.830;2023-04-03T07:08:29;3.63;;;2.38;;
1685;SDS011;840;47.980;7.830;2023-04-03T07:10:56;2.40;;;2.20;;
1685;SDS011;840;47.980;7.830;2023-04-03T07:13:23;4.40;;;2.47;;
1685;SDS011;840;47.980;7.830;2023-04-03T07:15:50;2.33;;;2.13;;
1685;SDS011;840;47.980;7.830;2023-04-03T07:18:18;2.43;;;2.23;;
1685;SDS011;840;47.980;7.830;2023-04-03T07:20:46;3.10;;;2.20;;
1685;SDS011;840;47.980;7.830;2023-04-03T07:23:13;2.80;;;2.50;;
1685;SDS011;840;47.980;7.830;2023-04-03T07:25:42;2.63;;;2.43;;
1685;SDS011;840;47.980;7.830;2023-04-03T07:28:09;2.20;;;2.10;;
1685;SDS011;840;47.980;7.830;2023-04-03T07:30:41;2.47;;;2.37;;
1685;SDS011;840;47.980;7.830;2023-04-03T07:33:10;3.60;;;1.77;;
1685;SDS011;840;47.980;7.830;2023-04-03T07:35:38;2.43;;;2.23;;
1685;SDS011;840;47.980;7.830;2023-04-03T07:38:05;2.63;;;2.40;;
1685;SDS011;840;47.980;7.830;2023-04-03T07:40:32;3.23;;;3.03;;
1685;SDS011;840;47.980;7.830;2023-04-03T07:43:02;2.47;;;2.23;;
1685;SDS011;840;47.980;7.830;2023-04-03T07:45:29;2.90;;;2.70;;
1685;SDS011;840;47.980;7.830;2023-04-03T07:47:55;2.60;;;2.50;;
1685;SDS011;840;47.980;7.830;2023-04-03T07:50:23;2.90;;;2.70;;
1685;SDS011;840;47.980;7.830;2023-04-03T07:52:51;2.80;;;2.40;;
1685;SDS011;840;47.980;7.830;2023-04-03T07:55:19;3.60;;;3.30;;
1685;SDS011;840;47.980;7.830;2023-04-03T07:57:46;2.17;;;2.03;;
1685;SDS011;840;47.980;7.830;2023-04-03T08:00:13;2.90;;;2.70;;
1685;SDS011;840;47.980;7.830;2023-04-03T08:02:42;3.00;;;2.80;;
1685;SDS011;840;47.980;7.830;2023-04-03T08:05:09;3.40;;;3.10;;
1685;SDS011;840;47.980;7.830;2023-04-03T08:07:36;2.87;;;2.67;;
1685;SDS011;840;47.980;7.830;2023-04-03T08:10:06;2.73;;;2.53;;
1685;SDS011;840;47.980;7.830;2023-04-03T08:12:33;3.13;;;2.93;;
1685;SDS011;840;47.980;7.830;2023-04-03T08:15:02;2.90;;;2.70;;
1685;SDS011;840;47.980;7.830;2023-04-03T08:17:30;3.10;;;2.90;;
1685;SDS011;840;47.980;7.830;2023-04-03T08:19:57;3.10;;;2.90;;
1685;SDS011;840;47.980;7.830;2023-04-03T08:22:24;3.20;;;3.00;;
1685;SDS011;840;47.980;7.830;2023-04-03T08:24:53;3.87;;;2.60;;
1685;SDS011;840;47.980;7.830;2023-04-03T08:27:21;3.63;;;3.43;;
1685;SDS011;840;47.980;7.830;2023-04-03T08:29:48;3.37;;;3.10;;
1685;SDS011;840;47.980;7.830;2023-04-03T08:32:15;3.57;;;3.27;;
1685;SDS011;840;47.980;7.830;2023-04-03T08:34:42;4.80;;;3.50;;
1685;SDS011;840;47.980;7.830;2023-04-03T08:37:11;3.40;;;3.20;;
1685;SDS011;840;47.980;7.830;2023-04-03T08:39:38;3.60;;;3.30;;
1685;SDS011;840;47.980;7.830;2023-04-03T08:42:05;3.47;;;3.10;;
1685;SDS011;840;47.980;7.830;2023-04-03T08:44:44;3.73;;;3.40;;
1685;SDS011;840;47.980;7.830;2023-04-03T08:47:19;3.40;;;3.10;;
1685;SDS011;840;47.980;7.830;2023-04-03T08:49:51;4.60;;;3.20;;
1685;SDS011;840;47.980;7.830;2023-04-03T08:52:20;3.80;;;3.50;;
1685;SDS011;840;47.980;7.830;2023-04-03T08:54:53;5.20;;;3.90;;
1685;SDS011;840;47.980;7.830;2023-04-03T08:57:26;3.40;;;3.20;;
1685;SDS011;840;47.980;7.830;2023-04-03T08:59:59;2.93;;;2.73;;
1685;SDS011;840;47.980;7.830;2023-04-03T09:02:43;3.90;;;3.60;;
1685;SDS011;840;47.980;7.830;2023-04-03T09:05:13;4.60;;;3.70;;
1685;SDS011;840;47.980;7.830;2023-04-03T09:07:44;3.47;;;3.17;;
1685;SDS011;840;47.980;7.830;2023-04-03T09:10:13;3.77;;;3.43;;
1685;SDS011;840;47.980;7.830;2023-04-03T09:12:42;4.00;;;3.60;;
1685;SDS011;840;47.980;7.830;2023-04-03T09:15:17;3.63;;;3.33;;
1685;SDS011;840;47.980;7.830;2023-04-03T09:17:53;4.10;;;2.97;;
1685;SDS011;840;47.980;7.830;2023-04-03T09:20:27;3.20;;;2.90;;
1685;SDS011;840;47.980;7.830;2023-04-03T09:23:03;3.80;;;3.50;;
1685;SDS011;840;47.980;7.830;2023-04-03T09:25:46;3.47;;;3.27;;
1685;SDS011;840;47.980;7.830;2023-04-03T09:28:13;3.20;;;3.00;;
1685;SDS011;840;47.980;7.830;2023-04-03T09:30:41;5.83;;;3.80;;
1685;SDS011;840;47.980;7.830;2023-04-03T09:33:08;6.33;;;3.10;;
1685;SDS011;840;47.980;7.830;2023-04-03T09:35:37;4.00;;;3.70;;
1685;SDS011;840;47.980;7.830;2023-04-03T09:38:20;4.37;;;3.40;;
1685;SDS011;840;47.980;7.830;2023-04-03T09:40:49;3.77;;;3.00;;
1685;SDS011;840;47.980;7.830;2023-04-03T09:43:28;3.70;;;3.40;;
1685;SDS011;840;47.980;7.830;2023-04-03T09:48:49;3.33;;;2.90;;
1685;SDS011;840;47.980;7.830;2023-04-03T09:51:18;2.47;;;2.37;;
1685;SDS011;840;47.980;7.830;2023-04-03T09:53:45;3.00;;;2.50;;
1685;SDS011;840;47.980;7.830;2023-04-03T09:56:18;2.27;;;2.17;;
1685;SDS011;840;47.980;7.830;2023-04-03T09:58:48;2.70;;;2.50;;
1685;SDS011;840;47.980;7.830;2023-04-03T10:01:30;2.77;;;2.57;;
1685;SDS011;840;47.980;7.830;2023-04-03T10:04:08;2.90;;;2.70;;
1685;SDS011;840;47.980;7.830;2023-04-03T10:06:38;2.70;;;2.50;;
1685;SDS011;840;47.980;7.830;2023-04-03T10:09:19;2.00;;;1.90;;
1685;SDS011;840;47.980;7.830;2023-04-03T10:11:58;2.30;;;2.20;;
1685;SDS011;840;47.980;7.830;2023-04-03T10:14:31;1.93;;;1.83;;
1685;SDS011;840;47.980;7.830;2023-04-03T10:17:02;2.05;;;1.95;;
1685;SDS011;840;47.980;7.830;2023-04-03T10:19:39;2.27;;;2.07;;
1685;SDS011;840;47.980;7.830;2023-04-03T10:22:13;2.50;;;2.30;;
1685;SDS011;840;47.980;7.830;2023-04-03T10:24:56;2.07;;;1.97;;
1685;SDS011;840;47.980;7.830;2023-04-03T10:27:33;2.08;;;1.88;;
1685;SDS011;840;47.980;7.830;2023-04-03T10:30:17;2.47;;;2.27;;
1685;SDS011;840;47.980;7.830;2023-04-03T10:32:54;2.00;;;1.80;;
1685;SDS011;840;47.980;7.830;2023-04-03T10:35:31;2.17;;;2.07;;
1685;SDS011;840;47.980;7.830;2023-04-03T10:38:13;1.97;;;1.87;;
1685;SDS011;840;47.980;7.830;2023-04-03T10:40:45;3.10;;;2.80;;
1685;SDS011;840;47.980;7.830;2023-04-03T10:43:21;2.13;;;2.03;;
1685;SDS011;840;47.980;7.830;2023-04-03T10:45:57;1.93;;;1.83;;
1685;SDS011;840;47.980;7.830;2023-04-03T10:48:39;2.60;;;2.43;;
1685;SDS011;840;47.980;7.830;2023-04-03T10:51:18;2.73;;;2.53;;
1685;SDS011;840;47.980;7.830;2023-04-03T10:53:52;1.90;;;1.80;;
1685;SDS011;840;47.980;7.830;2023-04-03T10:56:27;2.63;;;2.43;;
1685;SDS011;840;47.980;7.830;2023-04-03T10:58:59;3.20;;;2.60;;
1685;SDS011;840;47.980;7.830;2023-04-03T11:01:35;2.73;;;2.13;;
1685;SDS011;840;47.980;7.830;2023-04-03T11:04:06;1.87;;;1.77;;
1685;SDS011;840;47.980;7.830;2023-04-03T11:06:36;2.13;;;1.93;;
1685;SDS011;840;47.980;7.830;2023-04-03T11:09:11;2.37;;;2.17;;
1685;SDS011;840;47.980;7.830;2023-04-03T11:11:45;1.77;;;1.67;;
1685;SDS011;840;47.980;7.830;2023-04-03T11:14:15;2.83;;;2.63;;
1685;SDS011;840;47.980;7.830;2023-04-03T11:16:49;2.40;;;2.30;;
1685;SDS011;840;47.980;7.830;2023-04-03T11:19:29;2.00;;;1.90;;
1685;SDS011;840;47.980;7.830;2023-04-03T11:22:02;1.95;;;1.85;;
1685;SDS011;840;47.980;7.830;2023-04-03T11:24:36;2.33;;;2.13;;
1685;SDS011;840;47.980;7.830;2023-04-03T11:27:08;2.90;;;2.60;;
1685;SDS011;840;47.980;7.830;2023-04-03T11:29:41;2.00;;;1.90;;
1685;SDS011;840;47.980;7.830;2023-04-03T11:32:18;4.20;;;2.23;;
1685;SDS011;840;47.980;7.830;2023-04-03T11:35:17;2.73;;;2.10;;
1685;SDS011;840;47.980;7.830;2023-04-03T11:37:46;2.10;;;1.90;;
1685;SDS011;840;47.980;7.830;2023-04-03T11:40:21;2.60;;;2.07;;
1685;SDS011;840;47.980;7.830;2023-04-03T11:42:52;2.30;;;1.90;;
1685;SDS011;840;47.980;7.830;2023-04-03T11:45:30;2.40;;;2.20;;
1685;SDS011;840;47.980;7.830;2023-04-03T11:48:02;2.60;;;1.93;;
1685;SDS011;840;47.980;7.830;2023-04-03T11:50:38;2.40;;;2.20;;
1685;SDS011;840;47.980;7.830;2023-04-03T11:55:54;2.40;;;2.27;;
1685;SDS011;840;47.980;7.830;2023-04-03T11:58:26;2.60;;;2.40;;
1685;SDS011;840;47.980;7.830;2023-04-03T12:01:05;2.80;;;2.40;;
1685;SDS011;840;47.980;7.830;2023-04-03T12:12:41;2.15;;;2.05;;
1685;SDS011;840;47.980;7.830;2023-04-03T12:15:21;2.30;;;2.20;;
1685;SDS011;840;47.980;7.830;2023-04-03T12:20:58;2.20;;;2.00;;
1685;SDS011;840;47.980;7.830;2023-04-03T12:23:26;2.70;;;2.13;;
1685;SDS011;840;47.980;7.830;2023-04-03T12:26:00;2.40;;;2.20;;
1685;SDS011;840;47.980;7.830;2023-04-03T12:28:33;1.90;;;1.80;;
1685;SDS011;840;47.980;7.830;2023-04-03T12:31:04;2.23;;;2.10;;
1685;SDS011;840;47.980;7.830;2023-04-03T12:33:36;2.23;;;2.07;;
1685;SDS011;840;47.980;7.830;2023-04-03T12:36:13;1.80;;;1.70;;
1685;SDS011;840;47.980;7.830;2023-04-03T12:38:49;2.93;;;2.60;;
1685;SDS011;840;47.980;7.830;2023-04-03T12:41:30;2.50;;;2.30;;
1685;SDS011;840;47.980;7.830;2023-04-03T12:44:07;1.80;;;1.70;;
1685;SDS011;840;47.980;7.830;2023-04-03T12:46:47;2.30;;;2.10;;
1685;SDS011;840;47.980;7.830;2023-04-03T12:49:24;2.87;;;1.87;;
1685;SDS011;840;47.980;7.830;2023-04-03T12:52:00;2.50;;;2.30;;
1685;SDS011;840;47.980;7.830;2023-04-03T12:54:31;2.47;;;2.28;;
1685;SDS011;840;47.980;7.830;2023-04-03T12:57:15;2.90;;;2.40;;
1685;SDS011;840;47.980;7.830;2023-04-03T12:59:43;2.70;;;2.50;;
1685;SDS011;840;47.980;7.830;2023-04-03T13:02:20;2.40;;;2.30;;
1685;SDS011;840;47.980;7.830;2023-04-03T13:04:50;3.53;;;2.73;;
1685;SDS011;840;47.980;7.830;2023-04-03T13:07:21;2.30;;;2.13;;
1685;SDS011;840;47.980;7.830;2023-04-03T13:10:01;2.10;;;2.00;;
1685;SDS011;840;47.980;7.830;2023-04-03T13:12:31;2.50;;;2.30;;
1685;SDS011;840;47.980;7.830;2023-04-03T13:14:59;4.20;;;2.37;;
1685;SDS011;840;47.980;7.830;2023-04-03T13:17:29;2.90;;;2.70;;
1685;SDS011;840;47.980;7.830;2023-04-03T13:20:11;5.13;;;3.10;;
1685;SDS011;840;47.980;7.830;2023-04-03T13:22:43;2.50;;;2.30;;
1685;SDS011;840;47.980;7.830;2023-04-03T13:25:15;2.27;;;2.07;;
1685;SDS011;840;47.980;7.830;2023-04-03T13:27:45;3.07;;;2.47;;
1685;SDS011;840;47.980;7.830;2023-04-03T13:30:20;3.03;;;2.27;;
1685;SDS011;840;47.980;7.830;2023-04-03T13:32:51;2.40;;;2.20;;
1685;SDS011;840;47.980;7.830;2023-04-03T13:35:25;2.73;;;2.43;;
1685;SDS011;840;47.980;7.830;2023-04-03T13:37:55;2.60;;;2.30;;
1685;SDS011;840;47.980;7.830;2023-04-03T13:40:22;3.03;;;2.83;;
1685;SDS011;840;47.980;7.830;2023-04-03T13:42:59;2.80;;;2.30;;
1685;SDS011;840;47.980;7.830;2023-04-03T13:45:29;3.87;;;2.43;;
1685;SDS011;840;47.980;7.830;2023-04-03T13:48:08;2.57;;;2.37;;
1685;SDS011;840;47.980;7.830;2023-04-03T13:50:53;2.23;;;2.07;;
1685;SDS011;840;47.980;7.830;2023-04-03T13:53:22;2.50;;;2.07;;
1685;SDS011;840;47.980;7.830;2023-04-03T13:55:58;2.40;;;2.20;;
1685;SDS011;840;47.980;7.830;2023-04-03T13:58:33;19.97;;;2.10;;
1685;SDS011;840;47.980;7.830;2023-04-03T14:01:06;1.70;;;1.60;;
1685;SDS011;840;47.980;7.830;2023-04-03T14:03:39;2.50;;;2.30;;
1685;SDS011;840;47.980;7.830;2023-04-03T14:06:10;2.23;;;2.03;;
1685;SDS011;840;47.980;7.830;2023-04-03T14:08:39;2.80;;;2.50;;
1685;SDS011;840;47.980;7.830;2023-04-03T14:11:09;2.47;;;2.23;;
1685;SDS011;840;47.980;7.830;2023-04-03T14:13:41;2.53;;;2.10;;
1685;SDS011;840;47.980;7.830;2023-04-03T14:16:11;3.87;;;2.10;;
1685;SDS011;840;47.980;7.830;2023-04-03T14:18:39;2.10;;;2.00;;
1685;SDS011;840;47.980;7.830;2023-04-03T14:21:06;2.57;;;2.37;;
1685;SDS011;840;47.980;7.830;2023-04-03T14:23:33;2.00;;;1.83;;
1685;SDS011;840;47.980;7.830;2023-04-03T14:26:00;2.13;;;2.03;;
1685;SDS011;840;47.980;7.830;2023-04-03T14:28:28;3.37;;;2.30;;
1685;SDS011;840;47.980;7.830;2023-04-03T14:30:58;2.53;;;2.33;;
1685;SDS011;840;47.980;7.830;2023-04-03T14:33:25;2.17;;;2.07;;
1685;SDS011;840;47.980;7.830;2023-04-03T14:35:52;1.87;;;1.77;;
1685;SDS011;840;47.980;7.830;2023-04-03T14:38:21;2.10;;;1.97;;
1685;SDS011;840;47.980;7.830;2023-04-03T14:40:51;2.10;;;1.90;;
1685;SDS011;840;47.980;7.830;2023-04-03T14:43:19;2.00;;;1.80;;
1685;SDS011;840;47.980;7.830;2023-04-03T14:45:47;2.50;;;2.13;;
1685;SDS011;840;47.980;7.830;2023-04-03T14:48:17;2.27;;;2.03;;
1685;SDS011;840;47.980;7.830;2023-04-03T14:50:46;2.57;;;2.37;;
1685;SDS011;840;47.980;7.830;2023-04-03T14:53:14;2.43;;;2.23;;
1685;SDS011;840;47.980;7.830;2023-04-03T14:55:42;2.10;;;1.97;;
1685;SDS011;840;47.980;7.830;2023-04-03T14:58:12;2.07;;;1.97;;
1685;SDS011;840;47.980;7.830;2023-04-03T15:00:40;4.47;;;2.40;;
1685;SDS011;840;47.980;7.830;2023-04-03T15:03:12;3.60;;;2.17;;
1685;SDS011;840;47.980;7.830;2023-04-03T15:05:43;2.03;;;1.60;;
1685;SDS011;840;47.980;7.830;2023-04-03T15:08:15;2.00;;;1.90;;
1685;SDS011;840;47.980;7.830;2023-04-03T15:10:45;2.33;;;1.93;;
1685;SDS011;840;47.980;7.830;2023-04-03T15:13:13;2.33;;;2.23;;
1685;SDS011;840;47.980;7.830;2023-04-03T15:15:40;2.60;;;2.13;;
1685;SDS011;840;47.980;7.830;2023-04-03T15:18:09;3.90;;;2.40;;
1685;SDS011;840;47.980;7.830;2023-04-03T15:20:42;2.60;;;2.30;;
1685;SDS011;840;47.980;7.830;2023-04-03T15:23:10;2.70;;;2.50;;
1685;SDS011;840;47.980;7.830;2023-04-03T15:25:38;2.13;;;1.97;;
1685;SDS011;840;47.980;7.830;2023-04-03T15:28:05;3.03;;;2.27;;
1685;SDS011;840;47.980;7.830;2023-04-03T15:30:35;2.60;;;2.47;;
1685;SDS011;840;47.980;7.830;2023-04-03T15:33:05;3.70;;;2.83;;
1685;SDS011;840;47.980;7.830;2023-04-03T15:35:32;2.30;;;2.10;;
1685;SDS011;840;47.980;7.830;2023-04-03T15:38:00;3.80;;;2.63;;
1685;SDS011;840;47.980;7.830;2023-04-03T15:40:27;2.43;;;2.23;;
1685;SDS011;840;47.980;7.830;2023-04-03T15:42:54;2.60;;;2.27;;
1685;SDS011;840;47.980;7.830;2023-04-03T15:45:21;2.10;;;1.90;;
1685;SDS011;840;47.980;7.830;2023-04-03T15:47:49;2.60;;;2.40;;
1685;SDS011;840;47.980;7.830;2023-04-03T15:50:16;2.17;;;2.00;;
1685;SDS011;840;47.980;7.830;2023-04-03T15:52:43;2.13;;;2.03;;
1685;SDS011;840;47.980;7.830;2023-04-03T15:55:12;2.10;;;2.00;;
1685;SDS011;840;47.980;7.830;2023-04-03T15:57:39;3.97;;;2.50;;
1685;SDS011;840;47.980;7.830;2023-04-03T16:00:06;3.40;;;2.40;;
1685;SDS011;840;47.980;7.830;2023-04-03T16:02:34;3.10;;;2.53;;
1685;SDS011;840;47.980;7.830;2023-04-03T16:05:07;2.57;;;2.37;;